createdAt,value
2018-12-14T00:00:55.857Z,3.20
2018-12-14T00:03:24.554Z,3.25
2018-12-14T00:05:53.257Z,3.23
2018-12-14T00:08:21.989Z,3.18
2018-12-14T00:10:50.737Z,3.24
2018-12-14T00:13:19.975Z,3.25
2018-12-14T00:15:48.631Z,3.20
2018-12-14T00:18:17.330Z,3.16
2018-12-14T00:20:46.004Z,3.13
2018-12-14T00:23:14.706Z,3.12
2018-12-14T00:25:43.519Z,3.09
2018-12-14T00:28:12.220Z,3.11
2018-12-14T00:30:40.883Z,3.14
2018-12-14T00:33:09.570Z,3.12
2018-12-14T00:35:38.770Z,3.09
2018-12-14T00:38:07.441Z,3.07
2018-12-14T00:40:36.170Z,3.05
2018-12-14T00:43:04.945Z,3.02
2018-12-14T00:45:33.617Z,2.95
2018-12-14T00:48:02.409Z,2.95
2018-12-14T00:50:31.096Z,2.96
2018-12-14T00:52:59.831Z,2.90
2018-12-14T00:55:28.595Z,2.90
2018-12-14T00:57:57.370Z,2.96
2018-12-14T01:00:26.185Z,2.88
2018-12-14T01:02:54.957Z,2.87
2018-12-14T01:05:23.719Z,2.88
2018-12-14T01:07:52.468Z,2.89
2018-12-14T01:10:21.163Z,2.97
2018-12-14T01:12:49.917Z,2.98
2018-12-14T01:15:18.658Z,3.02
2018-12-14T01:17:47.385Z,3.03
2018-12-14T01:20:16.324Z,3.12
2018-12-14T01:22:45.081Z,3.06
2018-12-14T01:25:14.308Z,3.08
2018-12-14T01:27:43.024Z,3.11
2018-12-14T01:30:12.336Z,3.08
2018-12-14T01:32:41.022Z,2.99
2018-12-14T01:35:09.773Z,2.91
2018-12-14T01:37:38.431Z,2.86
2018-12-14T01:40:08.899Z,2.76
2018-12-14T01:42:37.626Z,2.70
2018-12-14T01:45:06.832Z,2.71
2018-12-14T01:47:35.816Z,2.68
2018-12-14T01:50:06.215Z,2.72
2018-12-14T01:52:35.243Z,2.66
2018-12-14T01:55:04.918Z,2.72
2018-12-14T01:57:34.152Z,2.74
2018-12-14T02:00:07.053Z,2.74
2018-12-14T02:02:35.723Z,2.73
2018-12-14T02:05:05.217Z,2.75
2018-12-14T02:07:33.938Z,2.72
2018-12-14T02:10:02.682Z,2.77
2018-12-14T02:12:31.490Z,2.72
2018-12-14T02:15:00.346Z,2.69
2018-12-14T02:17:29.159Z,2.72
2018-12-14T02:19:58.786Z,2.68
2018-12-14T02:22:27.562Z,2.69
2018-12-14T02:24:56.731Z,2.70
2018-12-14T02:27:25.471Z,2.66
2018-12-14T02:29:54.857Z,2.71
2018-12-14T02:32:23.898Z,2.72
2018-12-14T02:34:52.912Z,2.68
2018-12-14T02:37:21.639Z,2.66
2018-12-14T02:39:50.360Z,2.72
2018-12-14T02:42:19.351Z,2.73
2018-12-14T02:44:48.519Z,2.71
2018-12-14T02:47:17.262Z,2.70
2018-12-14T02:49:46.042Z,2.75
2018-12-14T02:52:14.842Z,2.84
2018-12-14T02:54:43.777Z,2.84
2018-12-14T02:57:12.634Z,2.87
2018-12-14T02:59:41.576Z,2.91
2018-12-14T03:02:10.776Z,2.88
2018-12-14T03:04:39.497Z,2.80
2018-12-14T03:07:08.338Z,2.78
2018-12-14T03:09:37.097Z,2.79
2018-12-14T03:12:05.864Z,2.84
2018-12-14T03:14:34.983Z,2.85
2018-12-14T03:17:04.301Z,2.83
2018-12-14T03:19:32.979Z,2.90
2018-12-14T03:22:01.688Z,2.96
2018-12-14T03:24:30.451Z,3.03
2018-12-14T03:26:59.367Z,3.04
2018-12-14T03:29:28.043Z,3.07
2018-12-14T03:31:56.785Z,2.91
2018-12-14T03:34:25.490Z,2.73
2018-12-14T03:36:54.199Z,2.56
2018-12-14T03:39:23.051Z,2.49
2018-12-14T03:41:51.781Z,2.48
2018-12-14T03:44:20.556Z,2.42
2018-12-14T03:46:49.312Z,2.34
2018-12-14T03:49:17.974Z,2.18
2018-12-14T03:51:46.761Z,2.14
2018-12-14T03:54:22.498Z,2.13
2018-12-14T03:56:51.215Z,2.13
2018-12-14T03:59:19.980Z,2.16
2018-12-14T04:01:48.706Z,2.22
2018-12-14T04:04:17.405Z,2.15
2018-12-14T04:06:46.118Z,2.29
2018-12-14T04:09:14.851Z,2.09
2018-12-14T04:11:43.597Z,2.00
2018-12-14T04:14:12.765Z,2.10
2018-12-14T04:16:41.532Z,2.09
2018-12-14T04:19:10.300Z,2.04
2018-12-14T04:21:39.023Z,1.85
2018-12-14T04:24:08.112Z,1.58
2018-12-14T04:26:36.861Z,1.28
2018-12-14T04:29:05.619Z,1.23
2018-12-14T04:31:34.276Z,1.12
2018-12-14T04:34:03.022Z,0.91
2018-12-14T04:36:31.767Z,0.77
2018-12-14T04:39:00.624Z,0.69
2018-12-14T04:41:29.414Z,0.71
2018-12-14T04:43:58.173Z,0.81
2018-12-14T04:46:26.946Z,0.97
2018-12-14T04:48:55.627Z,0.97
2018-12-14T04:51:24.344Z,0.90
2018-12-14T04:53:53.080Z,0.86
2018-12-14T04:56:21.809Z,0.75
2018-12-14T04:58:50.522Z,0.86
2018-12-14T05:01:19.229Z,0.88
2018-12-14T05:03:48.387Z,0.83
2018-12-14T05:06:17.116Z,0.88
2018-12-14T05:08:45.858Z,0.76
2018-12-14T05:11:14.669Z,0.72
2018-12-14T05:13:43.459Z,0.76
2018-12-14T05:16:12.200Z,0.89
2018-12-14T05:18:40.874Z,0.91
2018-12-14T05:21:09.761Z,0.81
2018-12-14T05:23:38.586Z,0.68
2018-12-14T05:26:07.332Z,0.83
2018-12-14T05:28:36.164Z,0.71
2018-12-14T05:31:04.898Z,0.71
2018-12-14T05:33:33.631Z,0.53
2018-12-14T05:36:02.417Z,0.48
2018-12-14T05:38:31.119Z,0.59
2018-12-14T05:40:59.810Z,0.76
2018-12-14T05:43:28.808Z,0.69
2018-12-14T05:45:57.523Z,0.65
2018-12-14T05:48:26.243Z,0.69
2018-12-14T05:50:54.968Z,0.75
2018-12-14T05:53:23.707Z,0.68
2018-12-14T05:55:52.411Z,0.65
2018-12-14T05:58:21.146Z,0.63
2018-12-14T06:00:49.851Z,0.71
2018-12-14T06:03:18.573Z,0.70
2018-12-14T06:05:47.774Z,0.67
2018-12-14T06:08:16.479Z,0.69
2018-12-14T06:10:45.218Z,0.83
2018-12-14T06:13:14.697Z,0.85
2018-12-14T06:15:43.740Z,0.89
2018-12-14T06:18:12.572Z,0.91
2018-12-14T06:20:41.342Z,0.88
2018-12-14T06:23:10.021Z,1.11
2018-12-14T06:25:38.728Z,1.26
2018-12-14T06:28:07.526Z,1.29
2018-12-14T06:30:36.224Z,1.41
2018-12-14T06:33:04.895Z,1.44
2018-12-14T06:35:33.565Z,1.51
2018-12-14T06:38:02.232Z,1.52
2018-12-14T06:40:31.377Z,1.31
2018-12-14T06:43:00.112Z,1.32
2018-12-14T06:45:28.832Z,1.26
2018-12-14T06:47:57.553Z,1.23
2018-12-14T06:50:27.919Z,1.35
2018-12-14T06:52:57.371Z,1.32
2018-12-14T06:55:26.158Z,1.28
2018-12-14T06:57:55.234Z,1.31
2018-12-14T07:00:24.012Z,1.30
2018-12-14T07:02:52.778Z,1.11
2018-12-14T07:05:21.480Z,1.08
2018-12-14T07:07:50.280Z,1.01
2018-12-14T07:10:19.427Z,1.11
2018-12-14T07:12:48.280Z,1.01
2018-12-14T07:15:17.056Z,1.09
2018-12-14T07:17:46.267Z,1.01
2018-12-14T07:20:15.040Z,0.94
2018-12-14T07:22:43.870Z,1.11
2018-12-14T07:25:13.559Z,1.13
2018-12-14T07:27:42.562Z,1.07
2018-12-14T07:30:11.331Z,1.01
2018-12-14T07:32:40.068Z,0.92
2018-12-14T07:35:09.298Z,1.00
2018-12-14T07:37:38.005Z,0.86
2018-12-14T07:40:08.563Z,0.93
2018-12-14T07:42:38.693Z,0.99
2018-12-14T07:45:07.891Z,0.94
2018-12-14T07:47:36.857Z,1.00
2018-12-14T07:50:07.360Z,0.98
2018-12-14T07:52:36.021Z,0.97
2018-12-14T07:55:05.125Z,1.03
2018-12-14T07:57:33.960Z,1.12
2018-12-14T08:00:02.784Z,0.99
2018-12-14T08:02:32.071Z,1.05
2018-12-14T08:05:01.116Z,1.03
2018-12-14T08:07:29.941Z,1.09
2018-12-14T08:09:58.714Z,1.19
2018-12-14T08:12:27.358Z,1.19
2018-12-14T08:14:56.130Z,1.16
2018-12-14T08:17:24.873Z,1.18
2018-12-14T08:19:53.948Z,1.26
2018-12-14T08:22:22.734Z,1.40
2018-12-14T08:24:51.530Z,1.55
2018-12-14T08:27:20.586Z,1.48
2018-12-14T08:29:49.352Z,1.46
2018-12-14T08:32:18.872Z,1.56
2018-12-14T08:34:50.923Z,1.42
2018-12-14T08:37:18.537Z,1.55
2018-12-14T08:39:47.283Z,1.67
2018-12-14T08:42:16.017Z,1.52
2018-12-14T08:44:44.785Z,1.48
2018-12-14T08:47:13.770Z,1.64
2018-12-14T08:49:42.471Z,1.85
2018-12-14T08:52:11.281Z,1.96
2018-12-14T08:54:39.971Z,2.10
2018-12-14T08:57:08.671Z,2.21
2018-12-14T08:59:37.365Z,2.20
2018-12-14T09:02:06.094Z,2.35
2018-12-14T09:04:34.892Z,2.47
2018-12-14T09:07:03.626Z,2.35
2018-12-14T09:09:32.359Z,2.41
2018-12-14T09:12:01.662Z,2.36
2018-12-14T09:14:30.477Z,2.57
2018-12-14T09:16:59.171Z,2.60
2018-12-14T09:19:27.908Z,2.71
2018-12-14T09:21:56.730Z,2.66
2018-12-14T09:24:25.480Z,2.66
2018-12-14T09:26:54.211Z,2.74
2018-12-14T09:29:23.387Z,2.90
2018-12-14T09:31:52.396Z,3.04
2018-12-14T09:34:21.200Z,3.17
2018-12-14T09:36:50.479Z,3.22
2018-12-14T09:39:19.241Z,3.20
2018-12-14T09:41:48.006Z,3.20
2018-12-14T09:44:16.776Z,3.20
2018-12-14T09:46:45.950Z,3.12
2018-12-14T09:49:14.638Z,3.12
2018-12-14T09:51:43.376Z,2.89
2018-12-14T09:54:12.127Z,3.01
2018-12-14T09:56:40.880Z,2.93
2018-12-14T09:59:09.649Z,2.94
2018-12-14T10:01:38.386Z,3.02
2018-12-14T10:04:07.471Z,3.00
2018-12-14T10:06:36.214Z,2.87
2018-12-14T10:09:07.329Z,2.97
2018-12-14T10:11:36.236Z,3.05
2018-12-14T10:14:05.416Z,2.98
2018-12-14T10:16:34.122Z,3.01
2018-12-14T10:19:03.446Z,2.95
2018-12-14T10:21:32.530Z,2.94
2018-12-14T10:24:01.276Z,2.96
2018-12-14T10:26:30.048Z,3.04
2018-12-14T10:28:58.838Z,3.00
2018-12-14T10:31:27.756Z,2.81
2018-12-14T10:33:56.500Z,2.55
2018-12-14T10:36:25.312Z,2.69
2018-12-14T10:38:54.077Z,2.59
2018-12-14T10:41:22.793Z,2.75
2018-12-14T10:43:51.509Z,2.79
2018-12-14T10:46:20.271Z,2.95
2018-12-14T10:48:49.081Z,3.17
2018-12-14T10:51:17.821Z,3.25
2018-12-14T10:53:46.529Z,3.32
2018-12-14T10:56:15.254Z,3.24
2018-12-14T10:58:44.430Z,2.90
2018-12-14T11:01:18.406Z,2.90
2018-12-14T11:03:47.132Z,2.88
2018-12-14T11:06:15.962Z,2.87
2018-12-14T11:08:48.984Z,2.77
2018-12-14T11:11:18.027Z,2.86
2018-12-14T11:13:46.849Z,2.98
2018-12-14T11:16:15.660Z,3.03
2018-12-14T11:18:44.444Z,3.13
2018-12-14T11:21:13.195Z,3.24
2018-12-14T11:23:41.939Z,3.35
2018-12-14T11:26:10.755Z,3.38
2018-12-14T11:28:39.459Z,3.34
2018-12-14T11:31:08.248Z,3.40
2018-12-14T11:33:36.925Z,3.52
2018-12-14T11:36:05.642Z,3.54
2018-12-14T11:38:34.360Z,3.44
2018-12-14T11:41:03.125Z,3.40
2018-12-14T11:43:31.917Z,3.36
2018-12-14T11:46:01.623Z,3.36
2018-12-14T11:48:30.359Z,3.28
2018-12-14T11:50:59.126Z,3.22
2018-12-14T11:53:27.962Z,3.17
2018-12-14T11:55:57.567Z,3.28
2018-12-14T11:58:26.778Z,3.31
2018-12-14T12:00:55.548Z,3.38
2018-12-14T12:03:24.596Z,3.37
2018-12-14T12:05:53.595Z,3.41
2018-12-14T12:08:22.737Z,3.43
2018-12-14T12:10:51.458Z,3.46
2018-12-14T12:13:20.271Z,3.38
2018-12-14T12:15:49.417Z,3.30
2018-12-14T12:18:18.052Z,3.34
2018-12-14T12:20:46.779Z,3.26
2018-12-14T12:23:15.486Z,3.29
2018-12-14T12:25:44.222Z,3.40
2018-12-14T12:28:12.940Z,3.47
2018-12-14T12:30:41.707Z,3.38
2018-12-14T12:33:10.485Z,3.30
2018-12-14T12:35:39.220Z,3.38
2018-12-14T12:38:07.987Z,3.30
2018-12-14T12:40:36.753Z,3.44
2018-12-14T12:43:05.691Z,3.40
2018-12-14T12:45:34.404Z,3.48
2018-12-14T12:48:03.145Z,3.43
2018-12-14T12:50:32.221Z,3.44
2018-12-14T12:53:00.913Z,3.57
2018-12-14T12:55:29.624Z,3.48
2018-12-14T12:57:58.358Z,3.48
2018-12-14T13:00:27.532Z,3.43
2018-12-14T13:02:56.548Z,3.56
2018-12-14T13:05:25.449Z,3.60
2018-12-14T13:07:54.523Z,3.66
2018-12-14T13:10:41.663Z,3.68
2018-12-14T13:13:10.901Z,3.64
2018-12-14T13:15:39.628Z,3.74
2018-12-14T13:18:08.372Z,3.53
2018-12-14T13:20:37.054Z,3.48
2018-12-14T13:23:06.806Z,3.41
2018-12-14T13:25:35.654Z,3.40
2018-12-14T13:28:05.429Z,3.44
2018-12-14T13:30:34.613Z,3.51
2018-12-14T13:33:03.481Z,3.55
2018-12-14T13:35:32.665Z,3.32
2018-12-14T13:38:02.136Z,3.27
2018-12-14T13:40:30.909Z,3.21
2018-12-14T13:42:59.625Z,3.20
2018-12-14T13:45:28.898Z,3.27
2018-12-14T13:47:57.921Z,3.25
2018-12-14T13:50:26.713Z,3.15
2018-12-14T13:52:55.440Z,3.12
2018-12-14T13:55:24.179Z,3.15
2018-12-14T13:57:52.934Z,3.24
2018-12-14T14:00:21.694Z,3.23
2018-12-14T14:02:50.448Z,3.23
2018-12-14T14:05:19.227Z,3.21
2018-12-14T14:07:48.031Z,3.21
2018-12-14T14:10:16.784Z,3.24
2018-12-14T14:12:45.536Z,3.25
2018-12-14T14:15:20.726Z,3.24
2018-12-14T14:17:45.999Z,3.28
2018-12-14T14:20:14.763Z,3.32
2018-12-14T14:22:43.527Z,3.33
2018-12-14T14:25:17.438Z,3.27
2018-12-14T14:27:43.087Z,3.25
2018-12-14T14:30:12.156Z,3.27
2018-12-14T14:35:08.051Z,3.31
2018-12-14T14:37:36.795Z,3.32
2018-12-14T14:40:06.284Z,3.20
2018-12-14T14:42:35.022Z,3.24
2018-12-14T14:45:04.306Z,3.30
2018-12-14T14:47:33.073Z,3.33
2018-12-14T14:50:01.811Z,3.41
2018-12-14T14:52:30.640Z,3.37
2018-12-14T14:54:59.414Z,3.34
2018-12-14T14:57:29.086Z,3.37
2018-12-14T14:59:57.949Z,3.24
2018-12-14T15:02:26.650Z,3.32
2018-12-14T15:04:55.548Z,3.31
2018-12-14T15:07:24.287Z,3.37
2018-12-14T15:09:52.991Z,3.42
2018-12-14T15:12:21.744Z,3.44
2018-12-14T15:14:50.470Z,3.40
2018-12-14T15:17:19.533Z,3.47
2018-12-14T15:19:48.298Z,3.40
2018-12-14T15:22:17.004Z,3.35
2018-12-14T15:24:45.798Z,3.49
2018-12-14T15:27:14.580Z,3.53
2018-12-14T15:29:43.263Z,3.33
2018-12-14T15:32:12.499Z,3.31
2018-12-14T15:34:41.286Z,3.38
2018-12-14T15:37:10.097Z,3.32
2018-12-14T15:39:38.886Z,3.24
2018-12-14T15:42:07.844Z,3.16
2018-12-14T15:44:36.746Z,3.08
2018-12-14T15:47:08.032Z,3.12
2018-12-14T15:49:38.446Z,3.12
2018-12-14T15:52:07.299Z,3.06
2018-12-14T15:54:36.805Z,3.13
2018-12-14T15:57:07.175Z,3.05
2018-12-14T15:59:41.496Z,3.11
2018-12-14T16:02:10.646Z,3.13
2018-12-14T16:04:39.641Z,3.08
2018-12-14T16:07:08.970Z,3.11
2018-12-14T16:09:38.542Z,3.06
2018-12-14T16:12:10.032Z,3.08
2018-12-14T16:14:40.083Z,3.02
2018-12-14T16:17:09.594Z,3.02
2018-12-14T16:19:39.336Z,3.04
2018-12-14T16:22:08.216Z,2.96
2018-12-14T16:24:36.912Z,3.02
2018-12-14T16:27:05.975Z,3.00
2018-12-14T16:29:35.564Z,2.90
2018-12-14T16:32:04.840Z,2.82
2018-12-14T16:34:33.630Z,2.73
2018-12-14T16:37:02.343Z,2.63
2018-12-14T16:39:31.403Z,2.71
2018-12-14T16:42:00.208Z,2.72
2018-12-14T16:44:29.019Z,2.77
2018-12-14T16:46:58.205Z,2.90
2018-12-14T16:49:26.938Z,2.98
2018-12-14T16:51:55.642Z,3.02
2018-12-14T16:54:24.354Z,2.86
2018-12-14T16:56:53.580Z,2.88
2018-12-14T16:59:22.670Z,2.90
2018-12-14T17:01:51.977Z,2.75
2018-12-14T17:04:21.067Z,2.61
2018-12-14T17:06:50.185Z,2.70
2018-12-14T17:09:18.930Z,2.63
2018-12-14T17:11:47.856Z,2.76
2018-12-14T17:14:16.721Z,2.76
2018-12-14T17:16:45.712Z,2.69
2018-12-14T17:19:14.498Z,2.66
2018-12-14T17:21:43.270Z,2.68
2018-12-14T17:24:18.565Z,2.65
2018-12-14T17:26:50.971Z,2.55
2018-12-14T17:29:19.832Z,2.56
2018-12-14T17:31:48.653Z,2.57
2018-12-14T17:34:17.778Z,2.60
2018-12-14T17:36:46.539Z,2.53
2018-12-14T17:39:15.351Z,2.61
2018-12-14T17:41:44.128Z,2.60
2018-12-14T17:44:12.816Z,2.57
2018-12-14T17:46:42.144Z,2.65
2018-12-14T17:49:11.009Z,2.63
2018-12-14T17:51:40.438Z,2.61
2018-12-14T17:54:09.224Z,2.62
2018-12-14T17:56:37.975Z,2.68
2018-12-14T17:59:06.936Z,2.70
2018-12-14T18:01:35.758Z,2.67
2018-12-14T18:04:04.663Z,2.63
2018-12-14T18:06:33.414Z,2.65
2018-12-14T18:09:04.411Z,2.67
2018-12-14T18:11:33.183Z,2.63
2018-12-14T18:14:01.949Z,2.67
2018-12-14T18:16:31.312Z,2.71
2018-12-14T18:19:00.411Z,2.65
2018-12-14T18:21:29.166Z,2.61
2018-12-14T18:23:57.845Z,2.69
2018-12-14T18:26:26.824Z,2.67
2018-12-14T18:28:55.534Z,2.65
2018-12-14T18:31:27.150Z,2.59
2018-12-14T18:33:55.966Z,2.56
2018-12-14T18:36:24.712Z,2.56
2018-12-14T18:38:53.420Z,2.52
2018-12-14T18:41:23.089Z,2.51
2018-12-14T18:43:51.852Z,2.59
2018-12-14T18:46:20.586Z,2.61
2018-12-14T18:48:49.335Z,2.64
2018-12-14T18:51:18.064Z,2.60
2018-12-14T18:53:56.513Z,2.56
2018-12-14T18:56:25.369Z,2.61
2018-12-14T18:58:54.261Z,2.61
2018-12-14T19:01:23.336Z,2.71
2018-12-14T19:03:53.349Z,2.84
2018-12-14T19:06:24.884Z,2.72
2018-12-14T19:08:53.939Z,2.69
2018-12-14T19:11:22.839Z,2.65
2018-12-14T19:13:51.560Z,2.63
2018-12-14T19:16:20.921Z,2.61
2018-12-14T19:18:49.900Z,2.58
2018-12-14T19:21:18.768Z,2.60
2018-12-14T19:23:47.553Z,2.57
2018-12-14T19:26:16.276Z,2.61
2018-12-14T19:28:44.946Z,2.64
2018-12-14T19:31:13.741Z,2.63
2018-12-14T19:33:42.531Z,2.72
2018-12-14T19:36:11.284Z,2.71
2018-12-14T19:38:39.985Z,2.76
2018-12-14T19:41:08.926Z,2.87
2018-12-14T19:43:37.768Z,2.86
2018-12-14T19:46:06.725Z,2.88
2018-12-14T19:48:35.704Z,2.88
2018-12-14T19:51:04.669Z,2.86
2018-12-14T19:53:33.580Z,2.99
2018-12-14T19:56:02.378Z,2.96
2018-12-14T19:58:31.150Z,2.97
2018-12-14T20:00:59.908Z,2.98
2018-12-14T20:03:29.298Z,3.02
2018-12-14T20:05:58.358Z,2.85
2018-12-14T20:08:27.360Z,2.80
2018-12-14T20:10:56.163Z,2.86
2018-12-14T20:13:25.040Z,2.86
2018-12-14T20:16:00.861Z,2.88
2018-12-14T20:18:29.621Z,2.89
2018-12-14T20:20:58.461Z,2.93
2018-12-14T20:23:27.205Z,2.89
2018-12-14T20:25:55.972Z,2.97
2018-12-14T20:28:24.739Z,2.93
2018-12-14T20:30:53.486Z,2.90
2018-12-14T20:33:22.229Z,2.81
2018-12-14T20:35:50.955Z,2.87
2018-12-14T20:38:19.702Z,2.89
2018-12-14T20:40:48.479Z,2.84
2018-12-14T20:43:17.202Z,2.88
2018-12-14T20:45:45.929Z,2.87
2018-12-14T20:48:14.664Z,2.96
2018-12-14T20:50:43.397Z,2.94
2018-12-14T20:53:12.132Z,2.97
2018-12-14T20:55:40.802Z,3.03
2018-12-14T20:58:09.519Z,3.01
2018-12-14T21:00:38.302Z,3.06
2018-12-14T21:03:07.058Z,3.01
2018-12-14T21:05:36.384Z,3.00
2018-12-14T21:08:05.534Z,3.07
2018-12-14T21:10:34.301Z,3.02
2018-12-14T21:13:03.072Z,3.06
2018-12-14T21:15:31.805Z,2.97
2018-12-14T21:18:00.594Z,2.94
2018-12-14T21:20:29.400Z,2.90
2018-12-14T21:22:58.154Z,2.86
2018-12-14T21:25:26.958Z,2.95
2018-12-14T21:27:55.679Z,2.91
2018-12-14T21:30:24.587Z,2.84
2018-12-14T21:32:53.344Z,2.87
2018-12-14T21:35:22.051Z,2.87
2018-12-14T21:37:50.745Z,2.88
2018-12-14T21:40:19.436Z,2.91
2018-12-14T21:42:48.244Z,2.85
2018-12-14T21:45:16.948Z,2.83
2018-12-14T21:47:45.810Z,2.80
2018-12-14T21:50:14.640Z,2.87
2018-12-14T21:52:43.568Z,2.86
2018-12-14T21:55:12.333Z,2.93
2018-12-14T21:57:41.057Z,2.94
2018-12-14T22:00:13.374Z,2.95
2018-12-14T22:02:42.186Z,2.92
2018-12-14T22:05:10.909Z,3.01
2018-12-14T22:07:39.651Z,3.09
2018-12-14T22:10:09.435Z,3.17
2018-12-14T22:12:38.166Z,3.16
2018-12-14T22:15:07.733Z,3.09
2018-12-14T22:17:36.433Z,3.12
2018-12-14T22:20:05.700Z,3.13
2018-12-14T22:22:34.398Z,3.14
2018-12-14T22:25:03.157Z,3.20
2018-12-14T22:27:31.964Z,3.16
2018-12-14T22:30:00.700Z,3.13
2018-12-14T22:32:29.369Z,3.10
2018-12-14T22:34:58.057Z,3.06
2018-12-14T22:37:26.750Z,3.03
2018-12-14T22:39:55.996Z,3.00
2018-12-14T22:42:24.764Z,3.07
2018-12-14T22:45:00.115Z,3.02
2018-12-14T22:47:28.858Z,2.93
2018-12-14T22:49:57.594Z,2.93
2018-12-14T22:52:26.322Z,2.99
2018-12-14T22:54:55.011Z,3.03
2018-12-14T22:57:23.854Z,2.98
2018-12-14T22:59:52.593Z,2.98
2018-12-14T23:02:23.155Z,3.01
2018-12-14T23:04:51.857Z,3.11
2018-12-14T23:07:20.614Z,3.13
2018-12-14T23:09:49.289Z,3.11
2018-12-14T23:12:18.021Z,3.20
2018-12-14T23:14:46.691Z,3.26
2018-12-14T23:17:15.431Z,3.30
2018-12-14T23:19:44.204Z,3.31
2018-12-14T23:22:13.086Z,3.32
2018-12-14T23:24:41.782Z,3.26
2018-12-14T23:27:10.562Z,3.24
2018-12-14T23:29:40.176Z,3.25
2018-12-14T23:32:08.893Z,3.31
2018-12-14T23:34:37.601Z,3.39
2018-12-14T23:37:06.301Z,3.39
2018-12-14T23:39:35.192Z,3.42
2018-12-14T23:42:04.277Z,3.37
2018-12-14T23:44:34.007Z,3.36
2018-12-14T23:47:02.764Z,3.45
2018-12-14T23:49:31.488Z,3.50
2018-12-14T23:52:00.231Z,3.46
2018-12-14T23:54:28.933Z,3.38
2018-12-14T23:56:57.641Z,3.33
2018-12-14T23:59:26.383Z,3.37
